Time;durP1;ratioP1;P1;durP2;ratioP2;P2;SDS_P1;SDS_P2;PMS_P1;PMS_P2;Temp;Humidity;BMP_temperature;BMP_pressure;BME280_temperature;BME280_humidity;BME280_pressure;Samples;Min_cycle;Max_cycle;Signal;HPM_P1;HPM_P2
2022/05/31 00:00:28;;;;;;;3.53;1.48;;;;;;;20.29;40.95;101301.03;5053127;28;20112;-58
2022/05/31 00:02:56;;;;;;;3.15;1.33;;;;;;;20.27;41.01;101298.53;5053636;28;20476;-58
2022/05/31 00:05:24;;;;;;;2.90;1.30;;;;;;;20.27;40.85;101297.69;5053744;28;20485;-59
2022/05/31 00:07:52;;;;;;;3.63;1.40;;;;;;;20.26;40.89;101296.00;5052616;28;20448;-58
2022/05/31 00:10:18;;;;;;;3.30;1.45;;;;;;;20.25;40.64;101295.16;5053543;28;20028;-59
2022/05/31 00:12:44;;;;;;;4.25;1.70;;;;;;;20.23;40.71;101293.59;5052712;28;20028;-59
2022/05/31 00:15:11;;;;;;;3.95;1.50;;;;;;;20.22;40.80;101289.25;5053152;28;20025;-59
2022/05/31 00:17:37;;;;;;;2.90;1.40;;;;;;;20.22;40.88;101289.25;5053151;28;20044;-59
2022/05/31 00:20:04;;;;;;;3.88;1.50;;;;;;;20.21;40.74;101290.25;5052300;28;20032;-58
2022/05/31 00:22:33;;;;;;;3.75;1.45;;;;;;;20.20;40.88;101299.16;5053247;28;20056;-58
2022/05/31 00:24:58;;;;;;;3.47;1.40;;;;;;;20.16;40.77;101285.34;5052986;28;20027;-59
2022/05/31 00:27:24;;;;;;;4.43;1.50;;;;;;;20.16;40.89;101288.00;5052289;28;20117;-59
2022/05/31 00:29:50;;;;;;;2.63;1.30;;;;;;;20.15;40.72;101291.59;5052817;28;20032;-58
2022/05/31 00:32:24;;;;;;;3.78;1.40;;;;;;;20.14;40.82;101289.94;5053313;28;20021;-58
2022/05/31 00:34:51;;;;;;;3.67;1.45;;;;;;;20.14;40.85;101297.00;5052164;28;20083;-59
2022/05/31 00:37:17;;;;;;;2.75;1.25;;;;;;;20.13;40.84;101298.81;5053051;28;20113;-58
2022/05/31 00:39:46;;;;;;;3.65;1.45;;;;;;;20.12;40.56;101291.84;5052542;28;20503;-58
2022/05/31 00:42:17;;;;;;;3.30;1.50;;;;;;;20.10;40.87;101291.13;5051981;28;20028;-58
2022/05/31 00:44:42;;;;;;;3.45;1.40;;;;;;;20.08;40.79;101291.25;5053030;28;20033;-58
2022/05/31 00:47:10;;;;;;;4.03;1.42;;;;;;;20.06;40.73;101295.84;5052558;28;20469;-58
2022/05/31 00:49:38;;;;;;;3.95;1.67;;;;;;;20.06;40.80;101297.63;5052342;28;20400;-58
2022/05/31 00:52:12;;;;;;;3.50;1.42;;;;;;;20.06;40.66;101292.34;5052475;28;20028;-58
2022/05/31 00:54:42;;;;;;;3.15;1.60;;;;;;;20.05;40.89;101290.69;5053108;28;20036;-58
2022/05/31 00:57:09;;;;;;;2.80;1.30;;;;;;;20.04;40.83;101300.41;5051783;28;20476;-60
2022/05/31 00:59:43;;;;;;;4.30;1.55;;;;;;;20.03;40.87;101297.91;5052750;28;20043;-62
2022/05/31 01:02:09;;;;;;;3.92;1.65;;;;;;;20.02;40.81;101290.94;5051818;28;20071;-59
2022/05/31 01:05:04;;;;;;;3.83;1.50;;;;;;;20.01;40.82;101297.19;5052621;28;20050;-59
2022/05/31 01:07:30;;;;;;;4.55;1.70;;;;;;;20.00;40.68;101296.34;5052967;28;20029;-59
2022/05/31 01:09:57;;;;;;;4.45;1.40;;;;;;;20.00;40.67;101292.88;5051629;28;20537;-59
2022/05/31 01:12:25;;;;;;;3.75;1.58;;;;;;;19.98;40.70;101285.06;5052634;28;20025;-58
2022/05/31 01:14:51;;;;;;;3.38;1.55;;;;;;;19.98;40.90;101292.13;5052378;28;20074;-58
2022/05/31 01:17:21;;;;;;;3.78;1.60;;;;;;;19.97;40.80;101282.53;5051507;28;20041;-58
2022/05/31 01:19:57;;;;;;;3.33;1.45;;;;;;;19.96;40.77;101280.84;5052640;28;20067;-59
2022/05/31 01:22:52;;;;;;;3.95;1.55;;;;;;;19.94;40.87;101287.09;5052628;28;20568;-58
2022/05/31 01:25:46;;;;;;;4.43;1.58;;;;;;;19.93;40.90;101274.88;5051818;28;20028;-58
2022/05/31 01:28:40;;;;;;;3.87;1.53;;;;;;;19.93;40.79;101279.28;5052132;28;20497;-58
2022/05/31 01:31:28;;;;;;;2.97;1.30;;;;;;;19.92;40.81;101270.53;5051500;28;20039;-58
2022/05/31 01:34:09;;;;;;;2.75;1.45;;;;;;;19.90;40.78;101276.91;5052114;28;20044;-63
2022/05/31 01:36:40;;;;;;;2.95;1.42;;;;;;;19.89;40.61;101276.06;5052716;28;20028;-59
2022/05/31 01:39:17;;;;;;;3.88;1.33;;;;;;;19.89;40.78;101277.88;5051612;28;20021;-58
2022/05/31 01:41:50;;;;;;;4.68;1.60;;;;;;;19.87;40.90;101269.25;5052640;28;20025;-58
2022/05/31 01:44:18;;;;;;;4.13;1.45;;;;;;;19.87;40.69;101271.88;5051793;28;20025;-58
2022/05/31 01:46:46;;;;;;;3.05;1.38;;;;;;;19.86;40.79;101275.47;5052526;28;20032;-59
2022/05/31 01:49:13;;;;;;;3.13;1.40;;;;;;;19.84;40.60;101272.97;5052134;28;20079;-59
2022/05/31 01:51:41;;;;;;;4.10;1.40;;;;;;;19.85;40.62;101279.09;5052011;28;20025;-59
2022/05/31 01:54:09;;;;;;;2.95;1.27;;;;;;;19.84;40.87;101272.13;5055922;28;20024;-59
2022/05/31 01:56:35;;;;;;;3.45;1.30;;;;;;;19.84;40.87;101272.13;5055921;28;20025;-60
2022/05/31 01:59:03;;;;;;;3.42;1.40;;;;;;;19.83;40.71;101270.44;5054894;28;20025;-59
2022/05/31 02:01:30;;;;;;;3.13;1.40;;;;;;;19.82;40.83;101271.41;5056164;28;20029;-60
2022/05/31 02:03:56;;;;;;;2.70;1.30;;;;;;;19.81;40.67;101277.66;5055801;28;20107;-59
2022/05/31 02:06:31;;;;;;;3.08;1.58;;;;;;;19.80;41.08;101271.53;5055264;28;20044;-59
2022/05/31 02:08:58;;;;;;;3.13;1.30;;;;;;;19.78;40.82;101267.34;5055462;28;20495;-59
2022/05/31 02:11:24;;;;;;;3.03;1.35;;;;;;;19.77;40.80;101261.19;5055933;28;20033;-59
2022/05/31 02:13:49;;;;;;;2.95;1.40;;;;;;;19.77;40.72;101268.28;5054966;28;20055;-58
2022/05/31 02:16:14;;;;;;;2.80;1.30;;;;;;;19.78;40.74;101265.53;5055666;28;20102;-58
2022/05/31 02:21:24;;;;;;;3.08;1.30;;;;;;;19.77;40.88;101266.47;5054888;28;20112;-58
2022/05/31 02:23:49;;;;;;;3.10;1.23;;;;;;;19.75;40.78;101263.94;5055204;28;20068;-59
2022/05/31 02:26:15;;;;;;;3.63;1.58;;;;;;;19.76;40.96;101254.25;5055347;28;20274;-58
2022/05/31 02:28:41;;;;;;;3.15;1.48;;;;;;;19.74;40.62;101254.34;5055511;28;20095;-58
2022/05/31 02:31:06;;;;;;;3.35;1.50;;;;;;;19.74;40.78;101253.47;5055333;28;20033;-58
2022/05/31 02:33:31;;;;;;;3.25;1.50;;;;;;;19.73;40.90;101255.28;5054827;28;20074;-59
2022/05/31 02:36:02;;;;;;;3.07;1.30;;;;;;;19.74;40.96;101253.47;5054983;28;20516;-59
2022/05/31 02:38:30;;;;;;;3.10;1.50;;;;;;;19.72;40.81;101253.59;5055369;28;20347;-59
2022/05/31 02:40:55;;;;;;;3.55;1.65;;;;;;;19.71;40.90;101251.94;5054264;28;20033;-58
2022/05/31 02:43:21;;;;;;;2.47;1.30;;;;;;;19.72;40.88;101250.97;5055370;28;20490;-59
2022/05/31 02:45:46;;;;;;;3.40;1.50;;;;;;;19.71;40.91;101251.09;5055299;28;20615;-58
2022/05/31 02:48:11;;;;;;;3.13;1.60;;;;;;;19.72;40.83;101255.41;5054134;28;20393;-58
2022/05/31 02:50:40;;;;;;;3.77;1.50;;;;;;;19.70;40.86;101247.59;5055138;28;20270;-59
2022/05/31 02:53:05;;;;;;;3.40;1.50;;;;;;;19.71;40.80;101254.59;5054812;28;20021;-58
2022/05/31 02:55:36;;;;;;;3.30;1.40;;;;;;;19.71;40.60;101246.66;5054630;28;20107;-58
2022/05/31 02:58:02;;;;;;;2.85;1.30;;;;;;;19.70;40.73;101244.13;5055468;28;20534;-59
2022/05/31 03:00:27;;;;;;;3.63;1.58;;;;;;;19.70;40.81;101247.59;5056793;28;20104;-58
2022/05/31 03:02:52;;;;;;;3.40;1.50;;;;;;;19.69;40.64;101247.72;5054572;28;20388;-59
2022/05/31 03:05:18;;;;;;;2.58;1.38;;;;;;;19.69;40.72;101247.72;5055456;28;20266;-59
2022/05/31 03:07:44;;;;;;;4.55;1.50;;;;;;;19.68;40.70;101238.13;5057543;28;20052;-59
2022/05/31 03:10:09;;;;;;;3.75;1.42;;;;;;;19.68;40.92;101240.78;5053829;28;20036;-59
2022/05/31 03:12:35;;;;;;;2.38;1.27;;;;;;;19.67;40.72;101245.22;5054769;28;20021;-58
2022/05/31 03:15:03;;;;;;;3.10;1.50;;;;;;;19.64;40.62;101239.34;5054279;28;20028;-58
2022/05/31 03:17:34;;;;;;;3.15;1.30;;;;;;;19.67;40.77;101244.38;5053616;28;20036;-59
2022/05/31 03:20:04;;;;;;;3.67;1.60;;;;;;;19.67;40.82;101244.38;5054205;28;20036;-59
2022/05/31 03:22:36;;;;;;;3.05;1.48;;;;;;;19.65;40.96;101236.56;5054407;28;20025;-59
2022/05/31 03:25:12;;;;;;;2.63;1.30;;;;;;;19.65;40.96;101235.75;5054373;28;20021;-58
2022/05/31 03:27:37;;;;;;;3.17;1.33;;;;;;;19.64;40.92;101232.25;5054500;28;20027;-59
2022/05/31 03:30:04;;;;;;;2.50;1.40;;;;;;;19.63;40.89;101227.06;5053282;28;20033;-59
2022/05/31 03:32:32;;;;;;;3.33;1.30;;;;;;;19.64;40.85;101239.34;5054201;28;20025;-59
2022/05/31 03:34:58;;;;;;;3.08;1.30;;;;;;;19.64;40.99;101234.06;5054086;28;20021;-59
2022/05/31 03:37:23;;;;;;;3.05;1.40;;;;;;;19.63;40.99;101230.59;5053542;28;20036;-59
2022/05/31 03:39:49;;;;;;;2.90;1.20;;;;;;;19.63;41.09;101235.00;5053604;28;20034;-59
2022/05/31 03:42:14;;;;;;;3.38;1.45;;;;;;;19.62;40.78;101231.53;5054095;28;20067;-59
2022/05/31 03:44:39;;;;;;;3.03;1.47;;;;;;;19.63;40.92;101237.66;5053400;28;20025;-60
2022/05/31 03:47:05;;;;;;;3.83;1.25;;;;;;;19.62;40.97;101236.00;5053513;28;20258;-59
2022/05/31 03:52:23;;;;;;;2.63;1.20;;;;;;;19.61;41.00;101229.84;5050139;28;20040;-59
2022/05/31 03:54:48;;;;;;;2.47;1.20;;;;;;;19.60;40.99;101228.19;5053640;28;20033;-59
2022/05/31 03:57:19;;;;;;;3.87;1.50;;;;;;;19.60;41.10;101228.19;5053851;28;20113;-59
2022/05/31 03:59:44;;;;;;;3.38;1.30;;;;;;;19.61;40.94;101226.38;5052855;28;20123;-59
2022/05/31 04:02:09;;;;;;;3.45;1.75;;;;;;;19.60;41.04;101228.19;5053565;28;20158;-58
2022/05/31 04:04:36;;;;;;;3.90;1.40;;;;;;;19.60;40.82;101230.84;5053764;28;20503;-59
2022/05/31 04:07:03;;;;;;;2.97;1.48;;;;;;;19.59;40.81;101223.84;5052727;28;20266;-57
2022/05/31 04:09:31;;;;;;;3.22;1.40;;;;;;;19.60;40.93;101227.31;5053963;28;20025;-59
2022/05/31 04:11:58;;;;;;;2.33;1.30;;;;;;;19.60;40.85;101233.47;5052275;28;20515;-58
2022/05/31 04:14:23;;;;;;;3.53;1.25;;;;;;;19.58;40.86;101230.94;5053120;28;20116;-58
2022/05/31 04:16:49;;;;;;;3.30;1.40;;;;;;;19.59;40.74;101231.78;5052776;28;20090;-58
2022/05/31 04:19:14;;;;;;;3.42;1.58;;;;;;;19.60;40.54;101229.97;5052076;28;20037;-58
2022/05/31 04:21:39;;;;;;;3.17;1.40;;;;;;;19.58;40.70;101228.31;5053363;28;20048;-58
2022/05/31 04:24:12;;;;;;;3.50;1.73;;;;;;;19.58;40.91;101225.66;5053037;28;20481;-57
2022/05/31 04:26:47;;;;;;;3.33;1.40;;;;;;;19.58;41.07;101225.66;5052544;28;20296;-57
2022/05/31 04:29:13;;;;;;;3.50;1.50;;;;;;;19.57;40.99;101220.50;5052931;28;20484;-58
2022/05/31 04:31:38;;;;;;;3.47;1.58;;;;;;;19.57;40.75;101223.97;5052769;28;20033;-59
2022/05/31 04:34:04;;;;;;;4.00;1.60;;;;;;;19.58;40.87;101230.09;5052358;28;20027;-58
2022/05/31 04:36:30;;;;;;;4.28;1.65;;;;;;;19.58;40.94;101224.81;5053251;28;20060;-59
2022/05/31 04:38:55;;;;;;;3.20;1.48;;;;;;;19.56;41.03;101227.56;5052658;28;20443;-59
2022/05/31 04:41:24;;;;;;;3.58;1.50;;;;;;;19.56;40.87;101222.28;5052212;28;20029;-59
2022/05/31 04:43:52;;;;;;;4.95;1.48;;;;;;;19.57;41.08;101228.44;5052825;28;20037;-59
2022/05/31 04:46:23;;;;;;;4.05;1.70;;;;;;;19.56;40.83;101224.94;5052951;28;20385;-58
2022/05/31 04:48:48;;;;;;;3.97;1.27;;;;;;;19.57;40.92;101223.16;5051911;28;20020;-58
2022/05/31 04:51:14;;;;;;;3.80;1.70;;;;;;;19.57;40.98;101226.63;5052979;28;20031;-59
2022/05/31 04:53:41;;;;;;;3.70;1.50;;;;;;;19.57;40.95;101223.16;5052816;28;20122;-58
2022/05/31 04:56:09;;;;;;;4.30;1.60;;;;;;;19.56;40.95;101214.34;5051956;28;20032;-58
2022/05/31 04:58:34;;;;;;;3.70;1.60;;;;;;;19.56;40.71;101224.09;5052910;28;20033;-59
2022/05/31 05:01:06;;;;;;;3.83;1.60;;;;;;;19.56;40.91;101221.44;5051935;28;20078;-59
2022/05/31 05:03:38;;;;;;;3.67;1.70;;;;;;;19.56;40.87;101222.28;5052961;28;20270;-59
2022/05/31 05:06:06;;;;;;;3.97;1.75;;;;;;;19.56;40.83;101214.34;5052408;28;20047;-59
2022/05/31 05:08:31;;;;;;;4.53;1.80;;;;;;;19.57;40.75;101217.84;5051835;28;20053;-59
2022/05/31 05:11:00;;;;;;;3.63;1.70;;;;;;;19.56;40.88;101217.00;5052413;28;20051;-58
2022/05/31 05:13:26;;;;;;;4.35;1.60;;;;;;;19.57;40.93;101221.34;5052686;28;20039;-58
2022/05/31 05:15:55;;;;;;;4.15;1.70;;;;;;;19.56;40.79;101214.34;5051334;28;20389;-59
2022/05/31 05:18:22;;;;;;;3.50;1.63;;;;;;;19.56;40.99;101211.72;5052830;28;20029;-58
2022/05/31 05:20:48;;;;;;;3.33;1.70;;;;;;;19.57;40.94;101216.03;5052329;28;20388;-58
2022/05/31 05:23:22;;;;;;;4.25;1.77;;;;;;;19.58;40.91;101208.94;5051918;28;20027;-59
2022/05/31 05:25:53;;;;;;;2.78;1.20;;;;;;;19.61;41.00;101208.69;5052652;28;20059;-58
2022/05/31 05:31:04;;;;;;;3.03;1.42;;;;;;;19.69;41.01;101216.00;5055768;28;20040;-58
2022/05/31 05:33:32;;;;;;;4.30;1.30;;;;;;;19.72;41.07;101213.09;5056490;28;20132;-57
2022/05/31 05:35:58;;;;;;;2.97;1.30;;;;;;;19.76;41.35;101217.22;5056262;28;20013;-58
2022/05/31 05:38:24;;;;;;;2.97;1.23;;;;;;;19.80;41.17;101220.44;5055452;28;20032;-58
2022/05/31 05:40:49;;;;;;;3.75;1.30;;;;;;;19.83;41.04;101215.72;5055937;28;20089;-59
2022/05/31 05:43:16;;;;;;;4.18;1.27;;;;;;;19.85;41.38;101212.97;5055401;28;20025;-58
2022/05/31 05:45:41;;;;;;;3.58;1.27;;;;;;;19.87;41.27;101209.25;5056093;28;20029;-58
2022/05/31 05:48:06;;;;;;;2.92;1.35;;;;;;;19.89;41.55;101212.59;5055774;28;20032;-58
2022/05/31 05:50:37;;;;;;;4.80;1.45;;;;;;;19.92;41.54;101211.50;5055539;28;20327;-58
2022/05/31 05:53:07;;;;;;;3.38;1.40;;;;;;;19.92;41.84;101212.34;5055909;28;20025;-59
2022/05/31 05:55:32;;;;;;;3.42;1.40;;;;;;;19.94;41.40;101220.97;5056102;28;20353;-59
2022/05/31 05:58:17;;;;;;;2.92;1.30;;;;;;;19.94;41.39;101215.69;5054984;28;20040;-59
2022/05/31 06:00:50;;;;;;;3.60;1.58;;;;;;;19.94;41.34;101214.84;5055578;28;20045;-60
2022/05/31 06:03:41;;;;;;;3.40;1.58;;;;;;;19.95;41.52;101216.53;5056092;28;20031;-60
2022/05/31 06:06:13;;;;;;;3.80;1.40;;;;;;;19.97;41.65;101213.78;5052158;28;20134;-60
2022/05/31 06:09:30;;;;;;;3.72;1.63;;;;;;;19.98;41.71;101213.63;5055693;28;20385;-60
2022/05/31 06:12:04;;;;;;;3.50;1.40;;;;;;;20.00;41.88;101210.88;5053503;28;20166;-59
2022/05/31 06:14:46;;;;;;;3.10;1.40;;;;;;;20.01;41.98;101208.09;5055800;28;20021;-60
2022/05/31 06:17:25;;;;;;;3.35;1.50;;;;;;;20.03;41.93;101214.09;5055007;28;20409;-60
2022/05/31 06:19:51;;;;;;;3.03;1.42;;;;;;;20.02;42.02;101203.63;5054486;28;20029;-59
2022/05/31 06:22:18;;;;;;;3.03;1.40;;;;;;;20.04;42.01;101213.09;5055568;28;20032;-60
2022/05/31 06:24:44;;;;;;;4.15;1.60;;;;;;;20.05;42.50;101214.78;5055690;28;20025;-59
2022/05/31 06:27:10;;;;;;;3.58;1.50;;;;;;;20.07;42.30;101217.31;5054320;28;20028;-60
2022/05/31 06:29:35;;;;;;;2.95;1.40;;;;;;;20.08;42.30;101217.19;5055273;28;20112;-59
2022/05/31 06:32:00;;;;;;;3.50;1.60;;;;;;;20.09;42.26;101215.38;5055161;28;20025;-60
2022/05/31 06:34:26;;;;;;;4.32;1.55;;;;;;;20.09;42.38;101218.88;5054634;28;20021;-59
2022/05/31 06:37:11;;;;;;;3.42;1.38;;;;;;;20.09;42.45;101218.00;5054935;28;20028;-59
2022/05/31 06:39:39;;;;;;;4.50;1.50;;;;;;;20.10;42.76;101225.00;5054016;28;20037;-59
2022/05/31 06:42:05;;;;;;;11.60;1.60;;;;;;;20.10;42.59;101223.19;5054698;28;20055;-59
2022/05/31 06:44:35;;;;;;;3.53;1.50;;;;;;;20.12;42.57;101217.75;5055187;28;20025;-59
2022/05/31 06:47:01;;;;;;;3.63;1.48;;;;;;;20.12;42.86;101223.03;5054208;28;20032;-60
2022/05/31 06:49:28;;;;;;;3.17;1.40;;;;;;;20.13;42.87;101224.72;5054961;28;20055;-60
2022/05/31 06:57:21;;;;;;;4.50;1.88;;;;;;;20.16;43.03;101215.72;5059401;28;20086;-60
2022/05/31 06:59:47;;;;;;;3.70;1.60;;;;;;;20.16;43.12;101218.34;5054922;28;20025;-60
2022/05/31 07:02:12;;;;;;;5.38;1.63;;;;;;;20.25;42.68;101225.50;5054601;28;20122;-60
2022/05/31 07:04:46;;;;;;;4.05;1.88;;;;;;;20.36;42.48;101224.59;5054998;28;20071;-60
2022/05/31 07:07:11;;;;;;;4.40;1.83;;;;;;;20.45;42.13;101223.81;5056077;28;20035;-60
2022/05/31 07:09:37;;;;;;;5.55;2.50;;;;;;;20.52;41.85;101216.19;5056006;28;20119;-61
2022/05/31 07:12:05;;;;;;;4.43;1.83;;;;;;;20.58;42.00;101219.13;5055266;28;20032;-61
2022/05/31 07:14:30;;;;;;;4.10;1.77;;;;;;;20.65;41.79;101214.22;5055696;28;20029;-60
2022/05/31 07:16:56;;;;;;;10.20;3.08;;;;;;;20.73;41.47;101216.16;5053429;28;20129;-59
2022/05/31 07:19:21;;;;;;;3.90;1.60;;;;;;;20.79;41.39;101215.66;5055244;28;20070;-60
2022/05/31 07:21:47;;;;;;;4.50;1.90;;;;;;;20.84;41.22;101205.50;5053840;28;20297;-58
2022/05/31 07:24:12;;;;;;;4.68;1.90;;;;;;;20.89;41.17;101208.59;5055277;28;20127;-58
2022/05/31 07:26:40;;;;;;;3.72;1.70;;;;;;;20.94;41.15;101209.00;5055690;28;20121;-60
2022/05/31 07:29:06;;;;;;;3.83;1.85;;;;;;;20.97;41.26;101208.75;5055722;28;20037;-61
2022/05/31 07:31:31;;;;;;;3.58;1.60;;;;;;;21.00;41.08;101213.78;5056071;28;20036;-63
2022/05/31 07:33:58;;;;;;;4.53;1.95;;;;;;;21.03;40.92;101215.34;5054250;28;20075;-60
2022/05/31 07:36:23;;;;;;;5.38;1.80;;;;;;;21.05;40.82;101215.19;5053461;28;20040;-60
2022/05/31 07:38:49;;;;;;;3.80;1.87;;;;;;;21.05;41.13;101210.72;5054256;28;20029;-60
2022/05/31 07:41:14;;;;;;;4.00;1.73;;;;;;;21.03;41.30;101207.38;5054024;28;20294;-60
2022/05/31 07:43:39;;;;;;;4.43;1.85;;;;;;;21.06;40.62;101204.47;5053489;28;20024;-59
2022/05/31 07:46:10;;;;;;;3.97;1.77;;;;;;;21.07;40.53;101202.66;5053840;28;20087;-59
2022/05/31 07:48:37;;;;;;;4.35;1.73;;;;;;;21.09;40.74;101200.69;5054023;28;20262;-59
2022/05/31 07:51:04;;;;;;;3.47;1.65;;;;;;;21.11;41.06;101193.44;5052013;28;20029;-59
2022/05/31 07:53:30;;;;;;;4.47;1.75;;;;;;;21.12;40.64;101192.47;5054323;28;20016;-59
2022/05/31 07:56:00;;;;;;;3.67;1.80;;;;;;;21.13;40.90;101191.50;5054036;28;20075;-60
2022/05/31 07:58:32;;;;;;;6.35;2.00;;;;;;;21.14;41.15;101191.38;5053352;28;20024;-61
2022/05/31 08:01:02;;;;;;;5.18;1.65;;;;;;;21.16;40.69;101194.72;5053507;28;20036;-60
2022/05/31 08:03:27;;;;;;;3.20;1.63;;;;;;;21.16;40.84;101191.25;5053772;28;20037;-60
2022/05/31 08:05:53;;;;;;;3.78;1.63;;;;;;;21.17;40.70;101192.91;5052870;28;20024;-58
2022/05/31 08:08:19;;;;;;;4.50;1.67;;;;;;;21.15;40.85;101193.03;5053818;28;20036;-58
2022/05/31 08:10:44;;;;;;;4.35;1.70;;;;;;;21.15;40.62;101189.56;5054670;28;20017;-59
2022/05/31 08:13:09;;;;;;;4.45;1.60;;;;;;;21.14;41.15;101186.06;5052883;28;20037;-59
2022/05/31 08:15:35;;;;;;;3.37;1.70;;;;;;;21.16;41.08;101183.28;5053721;28;20029;-60
2022/05/31 08:18:01;;;;;;;4.57;2.15;;;;;;;21.17;40.87;101182.28;5052576;28;20288;-59
2022/05/31 08:20:26;;;;;;;3.90;1.80;;;;;;;21.19;40.86;101181.19;5053551;28;20029;-60
2022/05/31 08:22:51;;;;;;;3.78;1.70;;;;;;;21.22;40.83;101181.88;5053539;28;20473;-59
2022/05/31 08:25:17;;;;;;;4.55;1.83;;;;;;;21.23;40.82;101180.91;5052950;28;20037;-59
2022/05/31 08:27:45;;;;;;;3.53;1.90;;;;;;;21.27;41.05;101185.81;5053342;28;20017;-60
2022/05/31 08:30:19;;;;;;;5.88;1.80;;;;;;;21.29;40.71;101180.38;5055025;28;20028;-59
2022/05/31 08:32:53;;;;;;;;;;;;;;;21.30;40.68;101180.25;5055693;28;20477;-60
2022/05/31 08:35:18;;;;;;;4.07;2.00;;;;;;;21.30;40.46;101174.94;5058289;28;19955;-60
2022/05/31 08:37:44;;;;;;;3.10;1.63;;;;;;;21.32;40.88;101190.72;5053231;28;20017;-60
2022/05/31 08:40:11;;;;;;;5.53;1.60;;;;;;;21.28;40.80;101182.16;5052226;28;20037;-60
2022/05/31 08:42:45;;;;;;;4.55;1.75;;;;;;;21.28;40.86;101184.81;5053341;28;20282;-60
2022/05/31 08:45:29;;;;;;;3.85;1.90;;;;;;;21.27;40.99;101177.88;5053121;28;20033;-60
2022/05/31 08:48:06;;;;;;;4.78;1.80;;;;;;;21.28;41.03;101176.03;5052110;28;20025;-60
2022/05/31 08:53:43;;;;;;;3.50;1.67;;;;;;;21.28;41.13;101176.88;5052213;28;20028;-60
2022/05/31 08:59:07;;;;;;;;;;;;;;;21.24;40.65;101169.31;5053254;28;20048;-60
2022/05/31 09:01:40;;;;;;;5.03;1.73;;;;;;;21.22;40.70;101171.28;5051963;28;19959;-59
2022/05/31 09:04:21;;;;;;;6.78;2.10;;;;;;;21.24;40.78;101169.31;5054117;28;20029;-59
2022/05/31 09:06:53;;;;;;;5.30;1.63;;;;;;;21.24;40.88;101180.78;5054916;28;20028;-61
2022/05/31 09:09:24;;;;;;;3.42;1.70;;;;;;;21.25;40.83;101171.84;5052284;28;20100;-60
2022/05/31 09:12:01;;;;;;;4.30;1.98;;;;;;;21.25;41.00;101177.13;5053369;28;20036;-59
2022/05/31 09:14:56;;;;;;;3.95;1.80;;;;;;;21.27;40.88;101171.69;5052107;28;20025;-60
2022/05/31 09:17:25;;;;;;;;;;;;;;;21.26;40.77;101168.22;5053520;28;20037;-59
2022/05/31 09:20:07;;;;;;;3.47;1.70;;;;;;;21.27;41.03;101167.25;5052517;28;19919;-58
2022/05/31 09:22:33;;;;;;;3.60;2.00;;;;;;;21.27;40.83;101167.25;5051871;28;20021;-60
2022/05/31 09:24:58;;;;;;;3.30;1.70;;;;;;;21.27;40.85;101171.69;5052579;28;20039;-59
2022/05/31 09:27:38;;;;;;;5.00;1.95;;;;;;;21.26;40.85;101164.75;5052925;28;20022;-59
2022/05/31 09:30:24;;;;;;;5.40;2.00;;;;;;;21.26;41.18;101168.22;5051583;28;20036;-59
2022/05/31 09:33:04;;;;;;;4.20;1.65;;;;;;;21.25;40.84;101166.53;5052107;28;20119;-58
2022/05/31 09:35:36;;;;;;;5.03;2.00;;;;;;;21.23;40.85;101171.16;5051853;28;20086;-58
2022/05/31 09:38:14;;;;;;;3.70;1.80;;;;;;;21.22;40.95;101165.97;5052283;28;20029;-60
2022/05/31 09:40:52;;;;;;;4.55;1.75;;;;;;;21.17;40.89;101164.59;5052675;28;20534;-59
2022/05/31 09:43:27;;;;;;;4.22;1.70;;;;;;;21.18;41.23;101168.91;5051766;28;20105;-59
2022/05/31 09:46:01;;;;;;;4.85;2.08;;;;;;;21.19;41.16;101167.13;5052808;28;20060;-57
2022/05/31 09:48:27;;;;;;;4.18;1.70;;;;;;;21.20;40.97;101163.47;5052829;28;20033;-57
2022/05/31 09:51:12;;;;;;;4.25;1.63;;;;;;;21.20;41.33;101159.03;5052079;28;20065;-58
2022/05/31 09:59:13;;;;;;;6.78;1.60;;;;;;;21.21;41.32;101157.19;5052282;28;20082;-58
2022/05/31 10:01:46;;;;;;;6.55;2.22;;;;;;;21.23;41.31;101157.06;5052487;28;20100;-59
2022/05/31 10:04:20;;;;;;;5.53;1.80;;;;;;;21.23;41.58;101157.91;5051193;28;20389;-60
2022/05/31 10:06:54;;;;;;;;;;;;;;;21.24;41.55;101153.41;5053143;28;20071;-60
2022/05/31 10:09:22;;;;;;;4.03;1.70;;;;;;;21.25;41.49;101153.28;5052126;28;20391;-58
2022/05/31 10:11:49;;;;;;;5.38;1.90;;;;;;;21.27;40.90;101148.69;5051553;28;20064;-59
2022/05/31 10:14:22;;;;;;;3.95;1.95;;;;;;;21.26;41.25;101151.50;5055062;28;20052;-58
2022/05/31 10:16:49;;;;;;;5.37;2.00;;;;;;;21.22;41.28;101143.00;5055715;28;20048;-60
2022/05/31 10:19:24;;;;;;;4.53;1.90;;;;;;;21.22;41.76;101153.59;5055133;28;20106;-58
2022/05/31 10:21:50;;;;;;;5.95;2.10;;;;;;;21.22;41.66;101150.06;5055677;28;20499;-58
2022/05/31 10:24:27;;;;;;;6.03;2.17;;;;;;;21.23;41.82;101157.06;5055992;28;20029;-60
2022/05/31 10:27:10;;;;;;;6.28;2.65;;;;;;;21.23;41.95;101154.41;5055501;28;20468;-59
2022/05/31 10:29:47;;;;;;;7.22;5.03;;;;;;;21.24;42.12;101153.41;5055838;28;20025;-59
2022/05/31 10:32:33;;;;;;;7.28;3.13;;;;;;;21.26;42.19;101157.63;5054830;28;20025;-59
2022/05/31 10:35:13;;;;;;;7.53;3.90;;;;;;;21.34;43.12;101155.13;5055469;28;20025;-59
2022/05/31 10:37:57;;;;;;;8.43;4.22;;;;;;;21.43;43.36;101149.94;5055493;28;20036;-60
2022/05/31 10:40:30;;;;;;;8.77;4.30;;;;;;;21.51;42.58;101152.81;5054699;28;20025;-60
2022/05/31 10:43:03;;;;;;;8.18;4.25;;;;;;;21.51;43.04;101150.16;5055252;28;20033;-66
2022/05/31 10:45:31;;;;;;;7.60;4.15;;;;;;;21.24;42.24;101150.78;5055545;28;20029;-69
2022/05/31 10:47:58;;;;;;;5.78;3.40;;;;;;;20.88;42.13;101148.63;5054310;28;20082;-67
2022/05/31 10:50:33;;;;;;;8.75;4.18;;;;;;;20.54;43.59;101150.72;5055542;28;20024;-68
2022/05/31 10:53:17;;;;;;;7.13;4.07;;;;;;;20.26;44.82;101153.91;5054889;28;20029;-68
2022/05/31 10:56:03;;;;;;;10.45;4.90;;;;;;;20.12;45.32;101162.19;5056746;28;20028;-74
2022/05/31 10:58:52;;;;;;;14.75;3.85;;;;;;;20.03;45.42;101157.69;5056688;28;20025;-73
2022/05/31 11:01:44;;;;;;;9.43;4.43;;;;;;;19.96;46.06;101153.88;5055078;28;20469;-77
2022/05/31 11:04:39;;;;;;;7.03;4.13;;;;;;;19.90;46.36;101153.44;5055970;28;20045;-70
2022/05/31 11:07:29;;;;;;;8.63;4.55;;;;;;;19.86;46.40;101154.66;5049781;28;20037;-74
2022/05/31 11:13:45;;;;;;;12.20;4.25;;;;;;;19.67;47.30;101159.78;5055169;28;20102;-74
2022/05/31 11:16:48;;;;;;;7.80;5.13;;;;;;;19.61;47.45;101160.28;5043836;28;20045;-68
2022/05/31 11:19:30;;;;;;;8.80;4.80;;;;;;;19.56;47.39;101156.19;5054819;28;20112;-70
2022/05/31 11:22:05;;;;;;;8.82;4.78;;;;;;;19.52;47.38;101160.06;5053959;28;20373;-72
2022/05/31 11:25:09;;;;;;;11.05;5.28;;;;;;;19.48;47.55;101163.91;5054795;28;20025;-65
2022/05/31 11:27:53;;;;;;;10.05;4.25;;;;;;;19.45;47.39;101166.81;5048242;28;20102;-72
2022/05/31 11:30:34;;;;;;;9.85;4.70;;;;;;;19.41;47.09;101165.41;5055046;28;20404;-79
2022/05/31 11:33:41;;;;;;;13.10;4.35;;;;;;;19.39;47.03;101162.03;5054526;28;20443;-70
2022/05/31 11:36:37;;;;;;;8.98;3.90;;;;;;;19.36;47.13;101157.03;5053572;28;20049;-68
2022/05/31 11:39:21;;;;;;;9.30;5.85;;;;;;;19.35;47.15;101165.91;5054830;28;20037;-70
2022/05/31 11:42:24;;;;;;;8.82;3.83;;;;;;;19.31;47.13;101167.09;5054316;28;20116;-69
2022/05/31 11:45:04;;;;;;;8.55;4.40;;;;;;;19.30;47.48;101155.69;5054529;28;20116;-74
2022/05/31 11:47:48;;;;;;;10.90;4.60;;;;;;;19.33;47.53;101160.75;5055073;28;20035;-78
2022/05/31 11:50:31;;;;;;;9.10;4.20;;;;;;;19.35;46.96;101158.81;5053970;28;20036;-72
2022/05/31 11:53:40;;;;;;;10.13;4.30;;;;;;;19.39;47.52;101162.88;5055389;28;20029;-70
2022/05/31 11:56:12;;;;;;;9.23;3.70;;;;;;;19.43;47.22;101162.63;5054714;28;20029;-70
2022/05/31 11:59:13;;;;;;;7.95;3.80;;;;;;;19.44;47.25;101166.94;5054361;28;20516;-72
2022/05/31 12:01:44;;;;;;;6.72;3.28;;;;;;;19.42;47.03;101164.41;5042781;28;20108;-68
2022/05/31 12:06:02;;;;;;;6.72;4.43;;;;;;;19.77;49.37;101160.69;5110952;27;20829;-55
2022/05/31 12:08:37;;;;;;;7.80;3.60;;;;;;;19.93;46.79;101154.97;5111154;28;20032;-56
2022/05/31 12:11:11;;;;;;;7.50;3.50;;;;;;;20.09;45.87;101154.50;5109927;28;20020;-54
2022/05/31 12:13:42;;;;;;;7.30;4.03;;;;;;;20.20;45.20;101150.97;5110571;28;20023;-55
2022/05/31 12:16:08;;;;;;;7.35;3.40;;;;;;;20.28;45.11;101151.13;5110573;28;20081;-53